Time;durP1;ratioP1;P1;durP2;ratioP2;P2;SDS_P1;SDS_P2;PMS_P1;PMS_P2;Temp;Humidity;BMP_temperature;BMP_pressure;BME280_temperature;BME280_humidity;BME280_pressure;Samples;Min_cycle;Max_cycle;Signal;HPM_P1;HPM_P2
2023/04/17 00:00:03;;;;;;;;;;;;;;;8.20;100.00;102552.19;4988696;28;20457;-72
2023/04/17 00:02:28;;;;;;;;;;;;;;;8.24;100.00;102553.78;4991575;28;20430;-72
2023/04/17 00:04:54;;;;;;;;;;;;;;;8.27;100.00;102555.47;4988677;28;20231;-72
2023/04/17 00:07:21;;;;;;;;;;;;;;;8.32;100.00;102560.63;4991776;28;19921;-72
2023/04/17 00:09:46;;;;;;;;;;;;;;;8.34;100.00;102556.09;4991501;28;19937;-72
2023/04/17 00:12:11;;;;;;;;;;;;;;;8.30;100.00;102560.72;4989465;28;19921;-72
2023/04/17 00:14:37;;;;;;;;;;;;;;;8.30;100.00;102552.69;4990529;28;19925;-72
2023/04/17 00:17:02;;;;;;;;;;;;;;;8.30;100.00;102544.66;4987067;28;19921;-72
2023/04/17 00:19:27;;;;;;;;;;;;;;;8.26;100.00;102554.59;4987701;28;20240;-72
2023/04/17 00:21:52;;;;;;;;;;;;;;;8.18;100.00;102543.34;4992765;28;20309;-72
2023/04/17 00:24:18;;;;;;;;;;;;;;;8.20;100.00;102545.94;4991413;28;19982;-72
2023/04/17 00:26:43;;;;;;;;;;;;;;;8.13;100.00;102558.72;4994116;28;20310;-72
2023/04/17 00:29:08;;;;;;;;;;;;;;;8.21;100.00;102547.69;4989000;28;20071;-72
2023/04/17 00:31:33;;;;;;;;;;;;;;;8.21;100.00;102550.38;4992031;28;20008;-72
2023/04/17 00:34:00;;;;;;;;;;;;;;;8.28;100.00;102548.31;4986453;28;19967;-72
2023/04/17 00:36:26;;;;;;;;;;;;;;;8.29;100.00;102556.28;4988845;28;20273;-72
2023/04/17 00:38:51;;;;;;;;;;;;;;;8.30;100.00;102550.00;4985938;28;19980;-72
2023/04/17 00:41:16;;;;;;;;;;;;;;;8.34;100.00;102548.06;4987814;28;19922;-72
2023/04/17 00:43:42;;;;;;;;;;;;;;;8.33;100.00;102546.31;4990556;28;19984;-72
2023/04/17 00:46:07;;;;;;;;;;;;;;;8.28;100.00;102545.63;4988937;28;20292;-72
2023/04/17 00:48:32;;;;;;;;;;;;;;;8.27;100.00;102547.44;5002218;28;19951;-72
2023/04/17 00:51:01;;;;;;;;;;;;;;;8.30;100.00;102539.31;5003273;28;19921;-72
2023/04/17 00:53:26;;;;;;;;;;;;;;;8.30;100.00;102533.06;5000638;28;19925;-72
2023/04/17 00:55:51;;;;;;;;;;;;;;;8.34;100.00;102526.66;4988239;28;19944;-72
2023/04/17 00:58:17;;;;;;;;;;;;;;;8.34;100.00;102527.50;5001395;28;20399;-71
2023/04/17 01:00:43;;;;;;;;;;;;;;;8.35;100.00;102529.25;4986216;28;20198;-72
2023/04/17 01:03:08;;;;;;;;;;;;;;;8.33;100.00;102528.47;5003947;28;20784;-72
2023/04/17 01:05:34;;;;;;;;;;;;;;;8.34;100.00;102526.66;5003721;28;20477;-72
2023/04/17 01:07:59;;;;;;;;;;;;;;;8.35;100.00;102520.38;5003031;28;20025;-72
2023/04/17 01:10:24;;;;;;;;;;;;;;;8.34;100.00;102527.50;5004280;28;19945;-72
2023/04/17 01:13:03;;;;;;;;;;;;;;;8.28;100.00;102533.13;5011065;28;20017;-72
2023/04/17 01:15:28;;;;;;;;;;;;;;;8.36;100.00;102531.00;5004185;28;19921;-72
2023/04/17 01:17:53;;;;;;;;;;;;;;;8.29;100.00;102537.56;4999521;28;19941;-72
2023/04/17 01:20:19;;;;;;;;;;;;;;;8.28;100.00;102538.50;5005568;28;20290;-72
2023/04/17 01:22:47;;;;;;;;;;;;;;;8.27;100.00;102526.03;4990540;28;20684;-72
2023/04/17 01:25:12;;;;;;;;;;;;;;;8.25;100.00;102527.91;4991485;28;20251;-72
2023/04/17 01:27:38;;;;;;;;;;;;;;;8.24;100.00;102524.34;4995377;28;19954;-72
2023/04/17 01:30:03;;;;;;;;;;;;;;;8.36;100.00;102540.84;4994625;28;19929;-72
2023/04/17 01:32:28;;;;;;;;;;;;;;;8.26;100.00;102535.00;4991514;28;19972;-72
2023/04/17 01:34:53;;;;;;;;;;;;;;;8.19;100.00;102531.72;4993307;28;20120;-72
2023/04/17 01:37:19;;;;;;;;;;;;;;;8.13;100.00;102529.28;4992822;28;19947;-72
2023/04/17 01:39:44;;;;;;;;;;;;;;;8.08;100.00;102532.13;4987514;28;20390;-72
2023/04/17 01:42:09;;;;;;;;;;;;;;;8.08;100.00;102533.94;4991231;28;19921;-72
2023/04/17 01:44:36;;;;;;;;;;;;;;;8.10;100.00;102543.63;4995348;28;19964;-72
2023/04/17 01:47:01;;;;;;;;;;;;;;;8.05;100.00;102539.41;4990448;28;19932;-72
2023/04/17 01:49:26;;;;;;;;;;;;;;;8.03;100.00;102536.81;4993184;28;19960;-72
2023/04/17 01:51:52;;;;;;;;;;;;;;;8.02;100.00;102537.75;4991057;28;20060;-73
2023/04/17 01:54:17;;;;;;;;;;;;;;;7.97;100.00;102542.41;4990422;28;19928;-72
2023/04/17 01:56:42;;;;;;;;;;;;;;;7.92;100.00;102542.59;4991243;28;20601;-72
2023/04/17 01:59:08;;;;;;;;;;;;;;;7.93;100.00;102538.09;4990527;28;19932;-72
2023/04/17 02:01:35;;;;;;;;;;;;;;;8.00;100.00;102541.38;4995425;28;20052;-72
2023/04/17 02:04:00;;;;;;;;;;;;;;;8.02;100.00;102545.75;4993188;28;19948;-72
2023/04/17 02:06:26;;;;;;;;;;;;;;;8.01;100.00;102538.66;4994957;28;19929;-72
2023/04/17 02:08:51;;;;;;;;;;;;;;;7.98;100.00;102541.47;4993196;28;19922;-72
2023/04/17 02:11:17;;;;;;;;;;;;;;;8.02;100.00;102543.09;4990521;28;19929;-72
2023/04/17 02:13:42;;;;;;;;;;;;;;;8.00;100.00;102544.06;4995026;28;19921;-72
2023/04/17 02:16:08;;;;;;;;;;;;;;;7.96;100.00;102546.00;4992986;28;20419;-72
2023/04/17 02:18:33;;;;;;;;;;;;;;;8.00;100.00;102547.63;4990917;28;19921;-72
2023/04/17 02:20:58;;;;;;;;;;;;;;;8.04;100.00;102543.00;4993219;28;19928;-72
2023/04/17 02:23:24;;;;;;;;;;;;;;;8.07;100.00;102546.47;4991678;28;19939;-72
2023/04/17 02:25:49;;;;;;;;;;;;;;;8.04;100.00;102540.34;4990887;28;20395;-72
2023/04/17 02:28:14;;;;;;;;;;;;;;;8.01;100.00;102548.47;4990256;28;19921;-72
2023/04/17 02:30:40;;;;;;;;;;;;;;;8.02;100.00;102539.53;4984521;28;19921;-72
2023/04/17 02:33:06;;;;;;;;;;;;;;;8.03;100.00;102541.28;4990499;28;19975;-72
2023/04/17 02:35:31;;;;;;;;;;;;;;;7.97;100.00;102539.72;4992885;28;19957;-72
2023/04/17 02:37:56;;;;;;;;;;;;;;;7.97;100.00;102545.06;5008696;28;19917;-72
2023/04/17 02:40:21;;;;;;;;;;;;;;;7.95;100.00;102547.78;5011042;28;19962;-72
2023/04/17 02:42:47;;;;;;;;;;;;;;;7.95;100.00;102544.25;4994140;28;19917;-72
2023/04/17 02:45:12;;;;;;;;;;;;;;;8.00;100.00;102542.28;4988950;28;19933;-72
2023/04/17 02:47:37;;;;;;;;;;;;;;;7.94;100.00;102545.19;4985434;28;19922;-72
2023/04/17 02:50:02;;;;;;;;;;;;;;;7.95;100.00;102544.25;4991445;28;19921;-72
2023/04/17 02:52:28;;;;;;;;;;;;;;;7.94;100.00;102550.53;4991948;28;19952;-72
2023/04/17 02:54:53;;;;;;;;;;;;;;;7.93;100.00;102551.47;4989715;28;19925;-72
2023/04/17 02:57:19;;;;;;;;;;;;;;;7.91;100.00;102550.66;4994032;28;19928;-72
2023/04/17 02:59:44;;;;;;;;;;;;;;;7.91;100.00;102550.66;4991492;28;20338;-72
2023/04/17 03:02:10;;;;;;;;;;;;;;;7.92;100.00;102555.06;5000550;28;19928;-72
2023/04/17 03:04:37;;;;;;;;;;;;;;;7.96;100.00;102559.38;5001672;28;20372;-72
2023/04/17 03:07:02;;;;;;;;;;;;;;;7.95;100.00;102566.50;4998397;28;19928;-72
2023/04/17 03:09:28;;;;;;;;;;;;;;;8.00;100.00;102560.13;5000594;28;19930;-72
2023/04/17 03:11:53;;;;;;;;;;;;;;;7.98;100.00;102562.88;5015033;28;19921;-72
2023/04/17 03:14:18;;;;;;;;;;;;;;;7.96;100.00;102552.19;4996972;28;19921;-72
2023/04/17 03:16:43;;;;;;;;;;;;;;;8.00;100.00;102573.50;4990341;28;19933;-71
2023/04/17 03:19:09;;;;;;;;;;;;;;;7.87;100.00;102554.38;4988948;28;19926;-72
2023/04/17 03:21:35;;;;;;;;;;;;;;;7.90;100.00;102571.19;4991835;28;19956;-72
2023/04/17 03:24:00;;;;;;;;;;;;;;;7.89;100.00;102568.56;4992995;28;20399;-72
2023/04/17 03:26:25;;;;;;;;;;;;;;;7.87;100.00;102571.31;4989054;28;20018;-72
2023/04/17 03:28:50;;;;;;;;;;;;;;;7.87;100.00;102573.09;4989041;28;19988;-73
2023/04/17 03:31:16;;;;;;;;;;;;;;;7.80;100.00;102564.44;4988191;28;19960;-72
2023/04/17 03:33:41;;;;;;;;;;;;;;;7.84;100.00;102567.84;4987208;28;19925;-71
2023/04/17 03:36:06;;;;;;;;;;;;;;;7.79;100.00;102566.25;4988921;28;19928;-72
2023/04/17 03:38:32;;;;;;;;;;;;;;;7.76;100.00;102563.69;4987046;28;19961;-72
2023/04/17 03:40:57;;;;;;;;;;;;;;;7.70;100.00;102561.25;4988142;28;20419;-72
2023/04/17 03:43:22;;;;;;;;;;;;;;;7.69;100.00;102562.19;4990277;28;19925;-72
2023/04/17 03:45:47;;;;;;;;;;;;;;;7.67;100.00;102569.38;4988607;28;19936;-72
2023/04/17 03:48:13;;;;;;;;;;;;;;;7.68;100.00;102565.78;4979534;28;19921;-72
2023/04/17 03:50:38;;;;;;;;;;;;;;;7.69;100.00;102563.97;4984988;28;19921;-72
2023/04/17 03:53:03;;;;;;;;;;;;;;;7.68;100.00;102563.13;4990096;28;19925;-72
2023/04/17 03:55:28;;;;;;;;;;;;;;;7.69;100.00;102564.84;4990985;28;19991;-72
2023/04/17 03:57:54;;;;;;;;;;;;;;;7.78;100.00;102558.28;4997906;28;20379;-72
2023/04/17 04:00:20;;;;;;;;;;;;;;;7.76;100.00;102562.81;5011484;28;19957;-72
2023/04/17 04:02:45;;;;;;;;;;;;;;;7.71;100.00;102556.75;5011193;28;19925;-72
2023/04/17 04:05:11;;;;;;;;;;;;;;;7.76;100.00;102560.13;4994397;28;20012;-71
2023/04/17 04:07:36;;;;;;;;;;;;;;;7.75;100.00;102556.59;4996037;28;20011;-72
2023/04/17 04:10:01;;;;;;;;;;;;;;;7.70;100.00;102563.94;4990148;28;20616;-71
2023/04/17 04:12:26;;;;;;;;;;;;;;;7.73;100.00;102566.50;5008667;28;20613;-72
2023/04/17 04:14:51;;;;;;;;;;;;;;;7.69;100.00;102566.63;4976622;28;20401;-72
2023/04/17 04:17:17;;;;;;;;;;;;;;;7.75;100.00;102561.97;5011540;28;20276;-72
2023/04/17 04:19:42;;;;;;;;;;;;;;;7.72;100.00;102566.53;5010737;28;19940;-72
2023/04/17 04:22:09;;;;;;;;;;;;;;;7.75;100.00;102566.41;4997868;28;20031;-73
2023/04/17 04:24:34;;;;;;;;;;;;;;;7.76;100.00;102569.06;5016087;28;19921;-71
2023/04/17 04:27:03;;;;;;;;;;;;;;;7.75;100.00;102567.31;5010916;28;19932;-72
2023/04/17 04:29:29;;;;;;;;;;;;;;;7.79;100.00;102566.25;5013913;28;19922;-72
2023/04/17 04:31:54;;;;;;;;;;;;;;;7.84;100.00;102573.22;4997410;28;19932;-72
2023/04/17 04:34:20;;;;;;;;;;;;;;;7.77;100.00;102573.47;5012168;28;20512;-72
2023/04/17 04:36:48;;;;;;;;;;;;;;;7.72;100.00;102577.22;4995804;28;19929;-71
2023/04/17 04:39:19;;;;;;;;;;;;;;;7.74;100.00;102580.72;5011332;28;19936;-72
2023/04/17 04:41:49;;;;;;;;;;;;;;;7.71;100.00;102579.03;4988270;28;20318;-69
2023/04/17 04:44:14;;;;;;;;;;;;;;;7.65;100.00;102582.81;4989278;28;19922;-71
2023/04/17 04:46:39;;;;;;;;;;;;;;;7.60;100.00;102587.47;4990863;28;20596;-71
2023/04/17 04:49:05;;;;;;;;;;;;;;;7.70;100.00;102585.31;4971566;28;19925;-71
2023/04/17 04:51:32;;;;;;;;;;;;;;;7.71;100.00;102583.50;4994405;28;19921;-71
2023/04/17 04:53:57;;;;;;;;;;;;;;;7.77;100.00;102584.16;4991020;28;19957;-71
2023/04/17 04:56:23;;;;;;;;;;;;;;;7.71;100.00;102586.19;4992833;28;20471;-71
2023/04/17 04:58:48;;;;;;;;;;;;;;;7.73;100.00;102585.22;4988864;28;20024;-71
2023/04/17 05:01:13;;;;;;;;;;;;;;;7.72;100.00;102585.25;4986931;28;19983;-71
2023/04/17 05:03:39;;;;;;;;;;;;;;;7.76;100.00;102593.13;4994795;28;19925;-71
2023/04/17 05:06:04;;;;;;;;;;;;;;;7.67;100.00;102595.28;4993974;28;20825;-71
2023/04/17 05:08:30;;;;;;;;;;;;;;;7.70;100.00;102592.44;5011900;28;20376;-71
2023/04/17 05:10:55;;;;;;;;;;;;;;;7.74;100.00;102594.09;4995317;28;20028;-71
2023/04/17 05:13:21;;;;;;;;;;;;;;;7.74;100.00;102594.97;4996236;28;19922;-71
2023/04/17 05:15:46;;;;;;;;;;;;;;;7.65;100.00;102598.88;4995525;28;19925;-71
2023/04/17 05:18:11;;;;;;;;;;;;;;;7.72;100.00;102601.28;4991281;28;19925;-71
2023/04/17 05:20:36;;;;;;;;;;;;;;;7.73;100.00;102611.06;4994536;28;19933;-71
2023/04/17 05:23:01;;;;;;;;;;;;;;;7.75;100.00;102611.88;4995682;28;19926;-71
2023/04/17 05:25:27;;;;;;;;;;;;;;;7.69;100.00;102612.97;4993179;28;19925;-71
2023/04/17 05:27:52;;;;;;;;;;;;;;;7.69;100.00;102614.78;4995210;28;20028;-71
2023/04/17 05:30:17;;;;;;;;;;;;;;;7.74;100.00;102623.50;4990071;28;19921;-71
2023/04/17 05:32:42;;;;;;;;;;;;;;;7.80;100.00;102617.94;4994848;28;19921;-71
2023/04/17 05:35:08;;;;;;;;;;;;;;;7.83;100.00;102616.94;5002994;28;19921;-71
2023/04/17 05:37:33;;;;;;;;;;;;;;;7.83;100.00;102617.81;5009715;28;19928;-71
2023/04/17 05:40:00;;;;;;;;;;;;;;;7.84;100.00;102618.66;4994754;28;19952;-71
2023/04/17 05:42:25;;;;;;;;;;;;;;;7.81;100.00;102620.53;4994565;28;20402;-71
2023/04/17 05:44:50;;;;;;;;;;;;;;;7.75;100.00;102618.09;5009967;28;19925;-70
2023/04/17 05:47:15;;;;;;;;;;;;;;;7.69;100.00;102622.78;4994457;28;19921;-71
2023/04/17 05:49:42;;;;;;;;;;;;;;;7.64;100.00;102614.94;4994661;28;20607;-71
2023/04/17 05:52:07;;;;;;;;;;;;;;;7.65;100.00;102616.69;4997418;28;19975;-71
2023/04/17 05:54:33;;;;;;;;;;;;;;;7.71;100.00;102623.59;4998726;28;20111;-71
2023/04/17 05:56:58;;;;;;;;;;;;;;;7.79;100.00;102611.72;4990278;28;19997;-71
2023/04/17 05:59:24;;;;;;;;;;;;;;;7.83;100.00;102619.59;5007490;28;20225;-71
2023/04/17 06:01:49;;;;;;;;;;;;;;;7.85;100.00;102620.41;4991094;28;19925;-72
2023/04/17 06:04:15;;;;;;;;;;;;;;;7.91;100.00;102625.53;5011464;28;20323;-71
2023/04/17 06:06:40;;;;;;;;;;;;;;;8.03;100.00;102629.53;4996005;28;19968;-71
2023/04/17 06:09:08;;;;;;;;;;;;;;;7.94;100.00;102626.31;4995679;28;20379;-71
2023/04/17 06:11:33;;;;;;;;;;;;;;;7.99;100.00;102630.59;5010946;28;20068;-71
2023/04/17 06:13:58;;;;;;;;;;;;;;;7.95;100.00;102635.19;4994381;28;20431;-71
2023/04/17 06:16:23;;;;;;;;;;;;;;;7.96;100.00;102635.13;5003560;28;19921;-71
2023/04/17 06:18:48;;;;;;;;;;;;;;;7.99;100.00;102635.94;4994758;28;19983;-71
2023/04/17 06:21:14;;;;;;;;;;;;;;;8.04;100.00;102636.66;4996956;28;19929;-72
2023/04/17 06:23:39;;;;;;;;;;;;;;;8.01;100.00;102640.31;4995620;28;19961;-71
2023/04/17 06:26:04;;;;;;;;;;;;;;;7.94;100.00;102633.44;4987576;28;19930;-71
2023/04/17 06:28:31;;;;;;;;;;;;;;;7.98;100.00;102635.09;5009967;28;19932;-71
2023/04/17 06:30:56;;;;;;;;;;;;;;;8.08;100.00;102631.09;4992125;28;20369;-71
2023/04/17 06:33:21;;;;;;;;;;;;;;;8.01;100.00;102642.09;4994860;28;19933;-71
2023/04/17 06:35:46;;;;;;;;;;;;;;;8.06;100.00;102633.00;4996713;28;19921;-71
2023/04/17 06:38:11;;;;;;;;;;;;;;;7.97;100.00;102625.31;4992669;28;19926;-71
2023/04/17 06:40:37;;;;;;;;;;;;;;;8.07;100.00;102655.25;4988649;28;19921;-71
2023/04/17 06:43:02;;;;;;;;;;;;;;;8.16;100.00;102652.25;4992884;28;19926;-71
2023/04/17 06:45:27;;;;;;;;;;;;;;;8.09;100.00;102656.06;4991571;28;19930;-71
2023/04/17 06:47:53;;;;;;;;;;;;;;;8.07;100.00;102656.16;4994086;28;19921;-71
2023/04/17 06:50:18;;;;;;;;;;;;;;;8.11;100.00;102662.25;4984610;28;20035;-71
2023/04/17 06:52:43;;;;;;;;;;;;;;;8.14;100.00;102667.47;4985429;28;19921;-71
2023/04/17 06:55:09;;;;;;;;;;;;;;;8.24;100.00;102670.66;4996032;28;19918;-71
2023/04/17 06:57:34;;;;;;;;;;;;;;;8.25;100.00;102665.25;4996098;28;20342;-72
2023/04/17 06:59:59;;;;;;;;;;;;;;;8.25;100.00;102649.19;5006186;28;20232;-71
2023/04/17 07:02:24;;;;;;;;;;;;;;;8.17;100.00;102661.13;4992834;28;20042;-71
2023/04/17 07:04:50;;;;;;;;;;;;;;;8.14;100.00;102666.59;4991361;28;20308;-71
2023/04/17 07:07:15;;;;;;;;;;;;;;;8.27;100.00;102667.88;5008402;28;19921;-72
2023/04/17 07:09:41;;;;;;;;;;;;;;;8.28;100.00;102672.28;4972149;28;19929;-71
2023/04/17 07:12:07;;;;;;;;;;;;;;;8.36;100.00;102678.19;4994860;28;20372;-71
2023/04/17 07:14:32;;;;;;;;;;;;;;;8.49;100.00;102675.09;4987800;28;20415;-71
2023/04/17 07:16:57;;;;;;;;;;;;;;;8.66;100.00;102672.59;5006710;28;19921;-71
2023/04/17 07:19:22;;;;;;;;;;;;;;;8.66;100.00;102680.63;4993293;28;19928;-71
2023/04/17 07:21:48;;;;;;;;;;;;;;;8.73;100.00;102683.06;4993199;28;20287;-71
2023/04/17 07:24:13;;;;;;;;;;;;;;;8.82;100.00;102691.59;4986874;28;19926;-71
2023/04/17 07:26:39;;;;;;;;;;;;;;;8.86;100.00;102692.38;4994240;28;20269;-73
2023/04/17 07:29:04;;;;;;;;;;;;;;;8.80;100.00;102690.78;4993223;28;19951;-71
2023/04/17 07:31:30;;;;;;;;;;;;;;;8.68;100.00;102694.84;4992584;28;19969;-71
2023/04/17 07:33:55;;;;;;;;;;;;;;;8.74;100.00;102682.13;4995025;28;20047;-71
2023/04/17 07:36:20;;;;;;;;;;;;;;;8.75;100.00;102690.09;4992737;28;19921;-71
2023/04/17 07:38:45;;;;;;;;;;;;;;;8.85;100.00;102698.66;4994109;28;19945;-71
2023/04/17 07:41:11;;;;;;;;;;;;;;;8.94;100.00;102698.25;4993399;28;20231;-71
2023/04/17 07:43:36;;;;;;;;;;;;;;;9.02;100.00;102700.59;4993071;28;19932;-70
2023/04/17 07:46:01;;;;;;;;;;;;;;;9.00;100.00;102702.50;4992796;28;19929;-71
2023/04/17 07:48:27;;;;;;;;;;;;;;;9.02;100.00;102694.41;4990936;28;19928;-70
2023/04/17 07:50:52;;;;;;;;;;;;;;;9.11;100.00;102699.38;4993410;28;19932;-72
2023/04/17 07:53:17;;;;;;;;;;;;;;;9.13;100.00;102701.06;4994394;28;19921;-71
2023/04/17 07:55:42;;;;;;;;;;;;;;;9.15;100.00;102692.94;4990470;28;20042;-71
2023/04/17 07:58:10;;;;;;;;;;;;;;;9.17;100.00;102692.88;4991414;28;19922;-72
2023/04/17 08:00:35;;;;;;;;;;;;;;;9.24;100.00;102700.59;4988884;28;19925;-71
2023/04/17 08:03:00;;;;;;;;;;;;;;;9.32;100.00;102705.63;4993958;28;20368;-71
2023/04/17 08:05:26;;;;;;;;;;;;;;;9.38;100.00;102696.47;5001516;28;19932;-71
2023/04/17 08:07:51;;;;;;;;;;;;;;;9.34;100.00;102692.16;5005368;28;20421;-71
2023/04/17 08:10:16;;;;;;;;;;;;;;;9.45;100.00;102695.25;4989250;28;19955;-71
2023/04/17 08:12:41;;;;;;;;;;;;;;;9.38;100.00;102694.63;4993321;28;19932;-71
2023/04/17 08:15:07;;;;;;;;;;;;;;;9.39;100.00;102699.06;4994191;28;20170;-72
2023/04/17 08:17:32;;;;;;;;;;;;;;;9.45;100.00;102698.81;4988124;28;19964;-71
2023/04/17 08:19:58;;;;;;;;;;;;;;;9.44;100.00;102699.75;4993131;28;20083;-71
2023/04/17 08:22:24;;;;;;;;;;;;;;;9.45;100.00;102700.59;4993773;28;19921;-71
2023/04/17 08:24:53;;;;;;;;;;;;;;;9.49;100.00;102701.34;4987650;28;20372;-71
2023/04/17 08:27:18;;;;;;;;;;;;;;;9.37;100.00;102700.94;4990065;28;19927;-71
2023/04/17 08:29:43;;;;;;;;;;;;;;;9.58;100.00;102700.94;4986885;28;20347;-71
2023/04/17 08:32:08;;;;;;;;;;;;;;;9.68;100.00;102694.25;4989430;28;20673;-71
2023/04/17 08:34:34;;;;;;;;;;;;;;;9.80;100.00;102700.00;4988967;28;19932;-71
2023/04/17 08:37:00;;;;;;;;;;;;;;;9.82;100.00;102699.00;4993776;28;20687;-71
2023/04/17 08:39:26;;;;;;;;;;;;;;;9.95;100.00;102698.41;5011787;28;20060;-71
2023/04/17 08:41:56;;;;;;;;;;;;;;;10.21;100.00;102700.78;4997428;28;19921;-71
2023/04/17 08:44:21;;;;;;;;;;;;;;;10.33;100.00;102701.16;4994162;28;19925;-71
2023/04/17 08:46:46;;;;;;;;;;;;;;;10.42;100.00;102699.88;4992109;28;20339;-71
2023/04/17 08:49:11;;;;;;;;;;;;;;;10.67;100.00;102702.28;4994172;28;20434;-71
2023/04/17 08:51:37;;;;;;;;;;;;;;;10.61;100.00;102695.34;4998726;28;20368;-71
2023/04/17 08:54:02;;;;;;;;;;;;;;;10.65;100.00;102686.22;4998771;28;19932;-72
2023/04/17 08:56:27;;;;;;;;;;;;;;;10.93;100.00;102694.75;4987168;28;19949;-71
2023/04/17 08:58:53;;;;;;;;;;;;;;;10.89;100.00;102687.78;4997900;28;20260;-71
2023/04/17 09:01:19;;;;;;;;;;;;;;;11.30;100.00;102684.78;4993391;28;20141;-71
2023/04/17 09:03:47;;;;;;;;;;;;;;;11.69;100.00;102690.84;4995568;28;20005;-71
2023/04/17 09:06:13;;;;;;;;;;;;;;;11.92;100.00;102683.41;4990318;28;19940;-71
2023/04/17 09:08:38;;;;;;;;;;;;;;;11.86;100.00;102689.97;4995917;28;19921;-72
2023/04/17 09:11:03;;;;;;;;;;;;;;;11.90;100.00;102690.69;5010499;28;19922;-71
2023/04/17 09:13:29;;;;;;;;;;;;;;;11.68;100.00;102686.44;4993303;28;20414;-71
2023/04/17 09:16:08;;;;;;;;;;;;;;;11.93;100.00;102694.06;5010023;28;20584;-71
2023/04/17 09:18:34;;;;;;;;;;;;;;;11.98;100.00;102694.69;4993590;28;19925;-71
2023/04/17 09:20:59;;;;;;;;;;;;;;;12.09;100.00;102694.13;4996398;23;20003;-71
2023/04/17 09:23:29;;;;;;;;;;;;;;;12.30;100.00;102694.78;4955647;28;20005;-70
2023/04/17 09:26:11;;;;;;;;;;;;;;;12.38;100.00;102688.97;4975605;28;19952;-72
2023/04/17 09:28:38;;;;;;;;;;;;;;;12.58;100.00;102693.19;4975584;28;20335;-71
2023/04/17 09:31:05;;;;;;;;;;;;;;;12.67;100.00;102690.94;4971942;28;19980;-71
2023/04/17 09:33:30;;;;;;;;;;;;;;;12.87;100.00;102689.81;4978403;28;19973;-71
2023/04/17 09:35:59;;;;;;;;;;;;;;;13.30;100.00;102689.09;4983152;28;20351;-71
2023/04/17 09:38:37;;;;;;;;;;;;;;;13.74;100.00;102682.84;4976389;28;19925;-71
2023/04/17 09:41:02;;;;;;;;;;;;;;;13.46;100.00;102680.97;4971176;28;19961;-71
2023/04/17 09:43:39;;;;;;;;;;;;;;;13.52;100.00;102685.97;4974186;28;20002;-72
2023/04/17 09:46:04;;;;;;;;;;;;;;;13.73;100.00;102681.09;4969476;28;19937;-72
2023/04/17 09:48:29;;;;;;;;;;;;;;;13.80;100.00;102685.16;4973082;28;19957;-71
2023/04/17 09:50:55;;;;;;;;;;;;;;;14.01;100.00;102687.47;4973690;28;20004;-71
2023/04/17 09:53:20;;;;;;;;;;;;;;;13.70;100.00;102683.13;4971469;28;19922;-72
2023/04/17 09:55:46;;;;;;;;;;;;;;;13.86;100.00;102681.19;4967126;28;20558;-72
2023/04/17 09:58:12;;;;;;;;;;;;;;;13.77;100.00;102693.44;4969345;28;20388;-72
2023/04/17 10:00:37;;;;;;;;;;;;;;;13.82;100.00;102681.50;4987404;28;19929;-72
2023/04/17 10:03:02;;;;;;;;;;;;;;;13.31;100.00;102689.00;4965978;28;19921;-71
2023/04/17 10:05:28;;;;;;;;;;;;;;;13.56;100.00;102686.69;4966777;28;20727;-72
2023/04/17 10:07:53;;;;;;;;;;;;;;;13.52;100.00;102691.38;4990643;28;19921;-71
2023/04/17 10:10:23;;;;;;;;;;;;;;;13.59;100.00;102684.66;4978933;28;20266;-72
2023/04/17 10:12:49;;;;;;;;;;;;;;;13.48;100.00;102689.84;4971449;28;19930;-72
2023/04/17 10:15:14;;;;;;;;;;;;;;;13.85;100.00;102690.25;4990692;28;20123;-71
2023/04/17 10:17:39;;;;;;;;;;;;;;;14.51;100.00;102687.03;4987738;28;19921;-71
2023/04/17 10:20:14;;;;;;;;;;;;;;;14.97;100.00;102669.63;4969351;28;19965;-71
2023/04/17 10:22:40;;;;;;;;;;;;;;;15.10;97.63;102680.47;4967998;28;20400;-71
2023/04/17 10:25:14;;;;;;;;;;;;;;;14.63;94.13;102685.34;4971869;28;20344;-71
2023/04/17 10:27:39;;;;;;;;;;;;;;;15.17;96.16;102692.63;4968526;28;20013;-72
2023/04/17 10:30:08;;;;;;;;;;;;;;;15.20;91.94;102683.41;4970738;28;20359;-72
2023/04/17 10:32:33;;;;;;;;;;;;;;;15.05;90.34;102683.50;4969800;28;19953;-71
2023/04/17 10:35:03;;;;;;;;;;;;;;;15.43;89.07;102674.56;4975811;28;20012;-73
2023/04/17 10:37:50;;;;;;;;;;;;;;;15.48;86.19;102676.09;4977868;28;20335;-72
2023/04/17 10:40:25;;;;;;;;;;;;;;;15.32;84.57;102670.88;4970320;28;19925;-72
2023/04/17 10:43:10;;;;;;;;;;;;;;;15.71;83.70;102669.06;4970153;28;19925;-71
2023/04/17 10:45:54;;;;;;;;;;;;;;;16.34;87.79;102672.69;4972103;28;20591;-71
2023/04/17 10:48:43;;;;;;;;;;;;;;;16.81;77.27;102669.25;4971349;28;19928;-72
2023/04/17 10:51:25;;;;;;;;;;;;;;;16.93;77.20;102660.19;4961757;28;20638;-70
2023/04/17 10:53:54;;;;;;;;;;;;;;;17.55;72.57;102665.44;4972582;28;19933;-71
2023/04/17 10:56:38;;;;;;;;;;;;;;;17.08;71.76;102665.44;4973782;28;20128;-71
2023/04/17 10:59:04;;;;;;;;;;;;;;;17.69;74.64;102656.22;4966361;28;19928;-71
2023/04/17 11:01:35;;;;;;;;;;;;;;;18.08;69.67;102659.44;4965246;28;19926;-71
2023/04/17 11:04:01;;;;;;;;;;;;;;;17.69;71.48;102658.94;4968883;28;19928;-71
2023/04/17 11:06:27;;;;;;;;;;;;;;;17.41;70.80;102655.69;4968235;28;19926;-71
2023/04/17 11:08:53;;;;;;;;;;;;;;;17.37;70.77;102659.63;4982776;28;19926;-72
2023/04/17 11:11:18;;;;;;;;;;;;;;;17.68;65.42;102655.31;4968728;28;19926;-72
2023/04/17 11:13:44;;;;;;;;;;;;;;;18.12;67.47;102651.91;4976215;28;19963;-71
2023/04/17 11:16:09;;;;;;;;;;;;;;;18.18;71.24;102650.53;4977279;28;19944;-72
2023/04/17 11:18:36;;;;;;;;;;;;;;;17.72;66.65;102650.53;4972478;28;21273;-72
2023/04/17 11:21:01;;;;;;;;;;;;;;;16.86;66.20;102663.47;4992109;28;20364;-71
2023/04/17 11:23:28;;;;;;;;;;;;;;;16.72;64.03;102659.09;4975424;28;19953;-72
2023/04/17 11:25:53;;;;;;;;;;;;;;;16.73;69.39;102656.28;4973137;28;19930;-72
2023/04/17 11:28:19;;;;;;;;;;;;;;;17.11;70.94;102648.94;4990807;28;20064;-72
2023/04/17 11:30:44;;;;;;;;;;;;;;;17.25;68.08;102623.44;4972775;28;20434;-72
2023/04/17 11:33:10;;;;;;;;;;;;;;;17.56;66.87;102645.47;4973529;28;19957;-72
2023/04/17 11:35:36;;;;;;;;;;;;;;;18.17;73.81;102637.94;4981860;28;19992;-71
2023/04/17 11:38:07;;;;;;;;;;;;;;;18.98;66.44;102641.19;4970484;28;19921;-72
2023/04/17 11:40:33;;;;;;;;;;;;;;;18.72;58.42;102638.78;4976167;28;19929;-72
2023/04/17 11:43:07;;;;;;;;;;;;;;;19.16;59.65;102637.84;4985460;28;19918;-72
2023/04/17 11:45:33;;;;;;;;;;;;;;;19.67;59.66;102625.25;4974450;28;19930;-72
2023/04/17 11:47:58;;;;;;;;;;;;;;;19.68;59.92;102628.84;4974263;28;20390;-72
2023/04/17 11:50:28;;;;;;;;;;;;;;;19.26;55.75;102640.66;4976594;28;19956;-72
2023/04/17 11:52:57;;;;;;;;;;;;;;;19.76;56.58;102629.03;4994510;28;20331;-73
2023/04/17 11:55:22;;;;;;;;;;;;;;;19.09;58.06;102642.09;4969762;28;19921;-70
2023/04/17 11:57:50;;;;;;;;;;;;;;;18.72;59.45;102632.47;4975258;28;20340;-71
2023/04/17 12:00:16;;;;;;;;;;;;;;;19.32;56.45;102630.09;4973894;28;19926;-71
2023/04/17 12:02:41;;;;;;;;;;;;;;;18.78;54.07;102633.81;4975544;28;19922;-71
2023/04/17 12:05:13;;;;;;;;;;;;;;;19.27;54.17;102639.66;4973537;28;19932;-72
2023/04/17 12:07:38;;;;;;;;;;;;;;;19.36;55.47;102635.25;4987731;28;20713;-71
2023/04/17 12:10:03;;;;;;;;;;;;;;;20.52;54.04;102638.59;4977697;28;19922;-71
2023/04/17 12:12:29;;;;;;;;;;;;;;;21.07;49.13;102631.72;4989450;28;19979;-71
2023/04/17 12:14:55;;;;;;;;;;;;;;;22.18;51.36;102631.94;4985397;28;19926;-71
2023/04/17 12:17:20;;;;;;;;;;;;;;;22.15;47.64;102624.03;4972587;28;19967;-71
2023/04/17 12:19:45;;;;;;;;;;;;;;;22.43;46.34;102621.28;4973353;28;19953;-72
2023/04/17 12:22:10;;;;;;;;;;;;;;;23.09;42.71;102629.22;4974902;28;20044;-72
2023/04/17 12:24:36;;;;;;;;;;;;;;;22.94;43.55;102626.19;4973745;28;19960;-72
2023/04/17 12:27:01;;;;;;;;;;;;;;;23.44;45.70;102623.88;4972218;28;19930;-71
2023/04/17 12:29:26;;;;;;;;;;;;;;;23.21;41.75;102630.72;4966236;28;19926;-72